createdAt,value
2017-11-07T00:00:01.957Z,4.00
2017-11-07T00:00:36.495Z,3.92
2017-11-07T00:01:11.230Z,3.70
2017-11-07T00:01:45.928Z,3.40
2017-11-07T00:02:21.395Z,3.40
2017-11-07T00:02:56.147Z,3.65
2017-11-07T00:03:30.886Z,3.30
2017-11-07T00:04:05.597Z,3.20
2017-11-07T00:04:40.310Z,2.95
2017-11-07T00:05:15.028Z,4.00
2017-11-07T00:05:49.469Z,3.25
2017-11-07T00:06:24.180Z,3.30
2017-11-07T00:06:58.883Z,3.25
2017-11-07T00:07:33.401Z,3.03
2017-11-07T00:08:08.213Z,4.45
2017-11-07T00:08:42.740Z,4.03
2017-11-07T00:09:17.472Z,3.67
2017-11-07T00:09:52.000Z,4.30
2017-11-07T00:10:26.703Z,4.50
2017-11-07T00:11:01.408Z,3.50
2017-11-07T00:11:35.975Z,3.37
2017-11-07T00:12:10.681Z,3.62
2017-11-07T00:12:45.400Z,3.35
2017-11-07T00:13:20.442Z,3.33
2017-11-07T00:13:54.946Z,3.60
2017-11-07T00:14:29.456Z,3.37
2017-11-07T00:15:03.624Z,4.15
2017-11-07T00:15:38.354Z,3.70
2017-11-07T00:16:12.880Z,3.30
2017-11-07T00:16:47.592Z,3.55
2017-11-07T00:17:22.312Z,3.45
2017-11-07T00:17:57.045Z,4.40
2017-11-07T00:18:31.786Z,4.70
2017-11-07T00:19:06.156Z,5.53
2017-11-07T00:19:40.861Z,5.80
2017-11-07T00:20:15.566Z,5.15
2017-11-07T00:20:49.925Z,3.90
2017-11-07T00:21:24.640Z,3.40
2017-11-07T00:21:59.354Z,3.75
2017-11-07T00:22:34.646Z,3.28
2017-11-07T00:23:09.339Z,4.28
2017-11-07T00:23:44.071Z,3.42
2017-11-07T00:24:18.769Z,4.60
2017-11-07T00:24:53.477Z,3.60
2017-11-07T00:25:28.190Z,3.62
2017-11-07T00:26:02.907Z,4.45
2017-11-07T00:26:37.614Z,4.45
2017-11-07T00:27:12.331Z,4.15
2017-11-07T00:27:47.038Z,3.37
2017-11-07T00:28:21.741Z,3.42
2017-11-07T00:28:56.456Z,3.20
2017-11-07T00:29:31.164Z,3.62
2017-11-07T00:30:05.692Z,3.87
2017-11-07T00:30:40.405Z,3.92
2017-11-07T00:31:15.104Z,3.00
2017-11-07T00:31:49.817Z,3.65
2017-11-07T00:32:24.523Z,4.15
2017-11-07T00:32:59.228Z,4.30
2017-11-07T00:33:33.927Z,4.18
2017-11-07T00:34:08.687Z,3.90
2017-11-07T00:34:43.387Z,4.03
2017-11-07T00:35:18.177Z,3.90
2017-11-07T00:35:52.887Z,3.20
2017-11-07T00:36:27.592Z,3.45
2017-11-07T00:37:02.300Z,3.12
2017-11-07T00:37:37.023Z,3.67
2017-11-07T00:38:11.735Z,3.20
2017-11-07T00:38:46.443Z,3.10
2017-11-07T00:39:21.169Z,2.85
2017-11-07T00:39:55.879Z,2.97
2017-11-07T00:40:30.644Z,3.37
2017-11-07T00:41:05.151Z,3.67
2017-11-07T00:41:39.864Z,3.30
2017-11-07T00:42:14.568Z,3.05
2017-11-07T00:42:49.327Z,3.45
2017-11-07T00:43:24.251Z,3.90
2017-11-07T00:43:58.952Z,3.83
2017-11-07T00:44:33.724Z,3.22
2017-11-07T00:45:08.473Z,3.08
2017-11-07T00:45:43.184Z,3.70
2017-11-07T00:46:17.871Z,3.35
2017-11-07T00:46:52.382Z,3.60
2017-11-07T00:47:26.899Z,3.70
2017-11-07T00:48:01.640Z,4.22
2017-11-07T00:48:36.339Z,3.40
2017-11-07T00:49:11.146Z,3.53
2017-11-07T00:49:45.891Z,3.60
2017-11-07T00:50:20.582Z,3.72
2017-11-07T00:50:55.286Z,3.60
2017-11-07T00:51:30.026Z,3.40
2017-11-07T00:52:04.723Z,3.37
2017-11-07T00:52:39.430Z,3.40
2017-11-07T00:53:14.115Z,3.85
2017-11-07T00:53:48.857Z,4.20
2017-11-07T00:54:23.212Z,3.80
2017-11-07T00:54:57.936Z,3.30
2017-11-07T00:55:32.663Z,2.90
2017-11-07T00:56:07.364Z,3.22
2017-11-07T00:56:42.056Z,3.40
2017-11-07T00:57:16.836Z,3.62
2017-11-07T00:57:51.535Z,3.45
2017-11-07T00:58:26.232Z,3.10
2017-11-07T00:59:00.931Z,3.22
2017-11-07T00:59:35.611Z,3.20
2017-11-07T01:00:10.655Z,3.65
2017-11-07T01:00:45.348Z,3.05
2017-11-07T01:01:20.063Z,3.22
2017-11-07T01:01:54.752Z,3.17
2017-11-07T01:02:29.456Z,2.75
2017-11-07T01:03:03.820Z,3.42
2017-11-07T01:03:38.520Z,3.25
2017-11-07T01:04:13.296Z,3.00
2017-11-07T01:04:47.979Z,3.17
2017-11-07T01:05:22.717Z,3.10
2017-11-07T01:05:57.417Z,3.40
2017-11-07T01:06:32.120Z,3.00
2017-11-07T01:07:06.834Z,3.58
2017-11-07T01:07:41.524Z,3.08
2017-11-07T01:08:16.235Z,3.20
2017-11-07T01:08:50.927Z,3.20
2017-11-07T01:09:25.620Z,3.55
2017-11-07T01:10:00.302Z,3.45
2017-11-07T01:10:35.069Z,3.30
2017-11-07T01:11:09.769Z,4.28
2017-11-07T01:11:44.474Z,3.17
2017-11-07T01:12:19.228Z,3.92
2017-11-07T01:12:53.929Z,3.90
2017-11-07T01:13:28.646Z,3.62
2017-11-07T01:14:03.364Z,3.10
2017-11-07T01:14:37.715Z,4.07
2017-11-07T01:15:12.418Z,3.75
2017-11-07T01:15:47.158Z,3.62
2017-11-07T01:16:21.851Z,3.70
2017-11-07T01:16:56.550Z,3.50
2017-11-07T01:17:31.273Z,4.90
2017-11-07T01:18:06.058Z,4.18
2017-11-07T01:18:40.774Z,3.67
2017-11-07T01:19:15.473Z,3.42
2017-11-07T01:19:50.205Z,3.33
2017-11-07T01:20:24.898Z,3.35
2017-11-07T01:20:59.628Z,3.35
2017-11-07T01:21:34.336Z,3.55
2017-11-07T01:22:09.101Z,3.28
2017-11-07T01:22:43.803Z,3.55
2017-11-07T01:23:18.507Z,3.30
2017-11-07T01:23:53.193Z,2.80
2017-11-07T01:24:27.904Z,3.70
2017-11-07T01:25:02.608Z,4.07
2017-11-07T01:25:37.321Z,3.65
2017-11-07T01:26:12.055Z,3.53
2017-11-07T01:26:46.768Z,3.65
2017-11-07T01:27:21.477Z,3.22
2017-11-07T01:27:56.179Z,4.45
2017-11-07T01:28:30.909Z,3.67
2017-11-07T01:29:05.604Z,4.00
2017-11-07T01:29:41.739Z,3.90
2017-11-07T01:30:16.108Z,3.30
2017-11-07T01:30:50.885Z,3.25
2017-11-07T01:31:25.911Z,3.15
2017-11-07T01:32:00.272Z,3.42
2017-11-07T01:32:34.627Z,3.20
2017-11-07T01:33:09.340Z,3.33
2017-11-07T01:33:44.039Z,3.00
2017-11-07T01:34:18.757Z,3.53
2017-11-07T01:34:53.455Z,3.80
2017-11-07T01:35:28.159Z,3.83
2017-11-07T01:36:02.871Z,3.62
2017-11-07T01:36:37.610Z,3.47
2017-11-07T01:37:12.322Z,3.58
2017-11-07T01:37:47.028Z,4.18
2017-11-07T01:38:21.772Z,3.55
2017-11-07T01:38:56.557Z,3.55
2017-11-07T01:39:31.259Z,3.35
2017-11-07T01:40:05.956Z,3.25
2017-11-07T01:40:40.670Z,3.78
2017-11-07T01:41:15.039Z,3.45
2017-11-07T01:41:49.810Z,3.42
2017-11-07T01:42:24.751Z,3.53
2017-11-07T01:42:59.459Z,3.70
2017-11-07T01:43:34.159Z,3.35
2017-11-07T01:44:08.876Z,3.95
2017-11-07T01:44:43.248Z,3.00
2017-11-07T01:45:17.946Z,3.83
2017-11-07T01:45:52.301Z,3.20
2017-11-07T01:46:27.005Z,3.72
2017-11-07T01:47:01.744Z,3.70
2017-11-07T01:47:36.425Z,3.50
2017-11-07T01:48:11.167Z,3.40
2017-11-07T01:48:45.882Z,2.95
2017-11-07T01:49:20.599Z,3.45
2017-11-07T01:49:55.310Z,4.05
2017-11-07T01:50:30.012Z,3.60
2017-11-07T01:51:04.719Z,3.47
2017-11-07T01:51:39.528Z,3.62
2017-11-07T01:52:14.254Z,3.60
2017-11-07T01:52:48.983Z,3.03
2017-11-07T01:53:23.697Z,3.45
2017-11-07T01:53:58.413Z,3.50
2017-11-07T01:54:33.160Z,3.72
2017-11-07T01:55:07.889Z,3.17
2017-11-07T01:55:42.592Z,2.92
2017-11-07T01:56:16.956Z,3.65
2017-11-07T01:56:51.312Z,3.87
2017-11-07T01:57:25.689Z,4.15
2017-11-07T01:58:00.188Z,4.18
2017-11-07T01:58:34.346Z,3.58
2017-11-07T01:59:08.878Z,4.30
2017-11-07T01:59:43.244Z,4.20
2017-11-07T02:00:17.939Z,3.92
2017-11-07T02:00:52.645Z,3.67
2017-11-07T02:01:26.984Z,4.47
2017-11-07T02:02:01.678Z,4.40
2017-11-07T02:02:36.340Z,3.75
2017-11-07T02:03:10.715Z,4.30
2017-11-07T02:03:45.443Z,3.87
2017-11-07T02:04:19.841Z,4.30
2017-11-07T02:04:54.182Z,4.35
2017-11-07T02:05:28.901Z,3.80
2017-11-07T02:06:04.119Z,4.05
2017-11-07T02:06:38.632Z,3.80
2017-11-07T02:07:13.331Z,4.10
2017-11-07T02:07:48.056Z,4.12
2017-11-07T02:08:22.732Z,3.70
2017-11-07T02:08:57.434Z,3.72
2017-11-07T02:09:32.140Z,4.25
2017-11-07T02:10:06.833Z,4.40
2017-11-07T02:10:41.545Z,3.97
2017-11-07T02:11:16.231Z,3.47
2017-11-07T02:11:51.030Z,3.65
2017-11-07T02:12:25.824Z,3.67
2017-11-07T02:13:00.549Z,4.00
2017-11-07T02:13:34.902Z,3.37
2017-11-07T02:14:09.272Z,3.72
2017-11-07T02:14:43.628Z,3.95
2017-11-07T02:15:17.999Z,3.42
2017-11-07T02:15:52.333Z,4.00
2017-11-07T02:16:26.680Z,3.83
2017-11-07T02:17:01.378Z,4.45
2017-11-07T02:17:36.082Z,4.30
2017-11-07T02:18:10.809Z,3.90
2017-11-07T02:18:45.508Z,3.67
2017-11-07T02:19:19.870Z,3.80
2017-11-07T02:19:54.233Z,4.75
2017-11-07T02:20:28.606Z,3.90
2017-11-07T02:21:02.983Z,4.40
2017-11-07T02:21:37.336Z,3.85
2017-11-07T02:22:11.689Z,4.30
2017-11-07T02:22:46.168Z,5.00
2017-11-07T02:23:20.868Z,4.70
2017-11-07T02:23:55.228Z,4.35
2017-11-07T02:24:29.590Z,4.68
2017-11-07T02:25:03.947Z,4.12
2017-11-07T02:25:38.636Z,3.85
2017-11-07T02:26:12.998Z,4.00
2017-11-07T02:26:47.359Z,4.00
2017-11-07T02:27:21.712Z,3.70
2017-11-07T02:27:56.080Z,3.90
2017-11-07T02:28:30.451Z,4.10
2017-11-07T02:29:04.793Z,3.70
2017-11-07T02:29:39.152Z,3.80
2017-11-07T02:30:13.505Z,3.72
2017-11-07T02:30:48.156Z,3.67
2017-11-07T02:31:22.579Z,3.72
2017-11-07T02:31:57.310Z,4.40
2017-11-07T02:32:32.031Z,3.90
2017-11-07T02:33:06.399Z,4.12
2017-11-07T02:33:40.778Z,3.30
2017-11-07T02:34:15.146Z,4.00
2017-11-07T02:34:49.510Z,3.37
2017-11-07T02:35:23.844Z,3.83
2017-11-07T02:35:58.549Z,4.00
2017-11-07T02:36:33.253Z,3.70
2017-11-07T02:37:07.603Z,3.30
2017-11-07T02:37:42.308Z,3.90
2017-11-07T02:38:17.004Z,3.60
2017-11-07T02:38:51.781Z,2.97
2017-11-07T02:39:26.499Z,3.80
2017-11-07T02:40:01.210Z,3.40
2017-11-07T02:40:35.912Z,3.70
2017-11-07T02:41:10.678Z,3.62
2017-11-07T02:41:45.202Z,3.15
2017-11-07T02:42:19.923Z,3.45
2017-11-07T02:42:54.652Z,3.37
2017-11-07T02:43:29.392Z,3.53
2017-11-07T02:44:04.389Z,4.10
2017-11-07T02:44:38.764Z,3.40
2017-11-07T02:45:13.574Z,4.20
2017-11-07T02:45:48.280Z,3.90
2017-11-07T02:46:23.683Z,3.83
2017-11-07T02:46:58.502Z,3.40
2017-11-07T02:47:33.228Z,3.50
2017-11-07T02:48:07.621Z,3.90
2017-11-07T02:48:42.347Z,3.62
2017-11-07T02:49:17.075Z,3.80
2017-11-07T02:49:51.803Z,3.72
2017-11-07T02:50:26.525Z,3.65
2017-11-07T02:51:01.322Z,3.78
2017-11-07T02:51:36.036Z,3.87
2017-11-07T02:52:10.740Z,4.00
2017-11-07T02:52:45.455Z,3.80
2017-11-07T02:53:19.803Z,4.40
2017-11-07T02:53:54.500Z,4.05
2017-11-07T02:54:28.917Z,3.33
2017-11-07T02:55:03.333Z,4.18
2017-11-07T02:55:37.693Z,3.55
2017-11-07T02:56:12.407Z,3.20
2017-11-07T02:56:47.097Z,3.95
2017-11-07T02:57:21.816Z,3.58
2017-11-07T02:57:56.523Z,3.85
2017-11-07T02:58:31.239Z,3.80
2017-11-07T02:59:06.119Z,3.55
2017-11-07T02:59:40.865Z,4.18
2017-11-07T03:00:15.581Z,4.15
2017-11-07T03:00:49.947Z,3.65
2017-11-07T03:01:24.668Z,3.70
2017-11-07T03:01:59.385Z,3.55
2017-11-07T03:02:34.096Z,3.42
2017-11-07T03:03:09.558Z,3.22
2017-11-07T03:03:44.273Z,3.80
2017-11-07T03:04:19.018Z,3.65
2017-11-07T03:04:54.093Z,3.55
2017-11-07T03:05:28.872Z,3.80
2017-11-07T03:06:03.648Z,3.90
2017-11-07T03:06:38.357Z,4.03
2017-11-07T03:07:13.093Z,3.87
2017-11-07T03:07:47.797Z,4.40
2017-11-07T03:08:22.513Z,3.87
2017-11-07T03:08:57.215Z,4.22
2017-11-07T03:09:31.932Z,4.15
2017-11-07T03:10:06.319Z,4.10
2017-11-07T03:10:41.025Z,3.70
2017-11-07T03:11:15.722Z,4.35
2017-11-07T03:11:50.432Z,4.07
2017-11-07T03:12:25.147Z,3.90
2017-11-07T03:12:59.872Z,4.30
2017-11-07T03:13:34.575Z,3.40
2017-11-07T03:14:09.358Z,3.92
2017-11-07T03:14:44.082Z,3.90
2017-11-07T03:15:18.813Z,3.72
2017-11-07T03:15:53.174Z,4.50
2017-11-07T03:16:27.868Z,3.62
2017-11-07T03:17:02.606Z,3.53
2017-11-07T03:17:37.310Z,3.67
2017-11-07T03:18:12.020Z,3.70
2017-11-07T03:18:46.721Z,3.92
2017-11-07T03:19:21.496Z,4.10
2017-11-07T03:19:56.227Z,4.28
2017-11-07T03:20:30.947Z,3.65
2017-11-07T03:21:05.643Z,3.75
2017-11-07T03:21:40.365Z,4.53
2017-11-07T03:22:15.071Z,4.47
2017-11-07T03:22:49.876Z,3.90
2017-11-07T03:23:24.756Z,3.60
2017-11-07T03:23:59.485Z,3.72
2017-11-07T03:24:34.204Z,3.80
2017-11-07T03:25:08.912Z,3.65
2017-11-07T03:25:43.652Z,3.55
2017-11-07T03:26:19.184Z,3.47
2017-11-07T03:26:53.910Z,4.00
2017-11-07T03:27:28.622Z,3.97
2017-11-07T03:28:03.370Z,3.72
2017-11-07T03:28:38.115Z,3.60
2017-11-07T03:29:12.830Z,3.90
2017-11-07T03:29:47.580Z,3.70
2017-11-07T03:30:22.395Z,4.12
2017-11-07T03:30:57.450Z,3.05
2017-11-07T03:31:32.168Z,3.35
2017-11-07T03:32:06.877Z,3.97
2017-11-07T03:32:41.617Z,3.50
2017-11-07T03:33:16.353Z,3.30
2017-11-07T03:33:51.064Z,3.33
2017-11-07T03:34:25.776Z,3.30
2017-11-07T03:35:00.591Z,3.67
2017-11-07T03:35:35.285Z,3.95
2017-11-07T03:36:10.282Z,3.75
2017-11-07T03:36:44.984Z,3.85
2017-11-07T03:37:19.836Z,3.60
2017-11-07T03:37:54.536Z,3.78
2017-11-07T03:38:29.447Z,3.80
2017-11-07T03:39:03.611Z,3.17
2017-11-07T03:39:38.560Z,4.32
2017-11-07T03:40:13.077Z,3.20
2017-11-07T03:40:47.794Z,3.67
2017-11-07T03:41:22.822Z,3.92
2017-11-07T03:41:57.502Z,4.50
2017-11-07T03:42:32.211Z,3.97
2017-11-07T03:43:06.915Z,3.55
2017-11-07T03:43:41.655Z,3.20
2017-11-07T03:44:16.358Z,3.20
2017-11-07T03:44:51.072Z,3.53
2017-11-07T03:45:25.786Z,3.22
2017-11-07T03:46:00.483Z,3.33
2017-11-07T03:46:35.308Z,3.22
2017-11-07T03:47:10.025Z,3.10
2017-11-07T03:47:44.732Z,3.55
2017-11-07T03:48:19.471Z,3.65
2017-11-07T03:48:54.260Z,3.55
2017-11-07T03:49:28.976Z,3.28
2017-11-07T03:50:03.691Z,3.75
2017-11-07T03:50:38.383Z,3.37
2017-11-07T03:51:13.147Z,3.55
2017-11-07T03:51:47.879Z,3.28
2017-11-07T03:52:22.628Z,3.45
2017-11-07T03:52:57.349Z,2.95
2017-11-07T03:53:32.055Z,2.50
2017-11-07T03:54:06.761Z,3.15
2017-11-07T03:54:41.490Z,4.15
2017-11-07T03:55:16.196Z,3.45
2017-11-07T03:55:50.917Z,3.58
2017-11-07T03:56:25.638Z,4.12
2017-11-07T03:57:00.661Z,4.00
2017-11-07T03:57:35.370Z,3.50
2017-11-07T03:58:10.091Z,3.60
2017-11-07T03:58:44.808Z,3.22
2017-11-07T03:59:19.510Z,3.47
2017-11-07T03:59:54.216Z,3.40
2017-11-07T04:00:28.928Z,3.10
2017-11-07T04:01:03.717Z,3.90
2017-11-07T04:01:38.416Z,3.72
2017-11-07T04:02:13.439Z,2.85
2017-11-07T04:02:48.259Z,3.80
2017-11-07T04:03:23.006Z,3.90
2017-11-07T04:03:57.702Z,3.90
2017-11-07T04:04:32.414Z,3.80
2017-11-07T04:05:07.157Z,3.50
2017-11-07T04:05:41.884Z,3.33
2017-11-07T04:06:16.284Z,4.50
2017-11-07T04:06:51.104Z,3.90
2017-11-07T04:07:25.850Z,3.97
2017-11-07T04:08:00.562Z,4.60
2017-11-07T04:08:35.338Z,4.05
2017-11-07T04:09:10.136Z,4.15
2017-11-07T04:09:44.843Z,4.87
2017-11-07T04:10:19.560Z,4.10
2017-11-07T04:10:54.266Z,4.00
2017-11-07T04:11:28.976Z,3.90
2017-11-07T04:12:03.344Z,3.90
2017-11-07T04:12:38.075Z,4.32
2017-11-07T04:13:12.795Z,3.75
2017-11-07T04:13:47.530Z,4.80
2017-11-07T04:14:22.264Z,4.50
2017-11-07T04:14:56.978Z,4.45
2017-11-07T04:15:31.693Z,4.70
2017-11-07T04:16:06.468Z,4.72
2017-11-07T04:16:41.187Z,4.82
2017-11-07T04:17:15.901Z,4.22
2017-11-07T04:17:51.005Z,3.30
2017-11-07T04:18:25.760Z,4.32
2017-11-07T04:19:00.463Z,4.55
2017-11-07T04:19:35.175Z,4.40
2017-11-07T04:20:09.926Z,4.65
2017-11-07T04:20:44.626Z,4.78
2017-11-07T04:21:19.366Z,5.03
2017-11-07T04:21:54.067Z,5.00
2017-11-07T04:22:28.771Z,5.20
2017-11-07T04:23:03.751Z,5.70
2017-11-07T04:23:38.468Z,5.72
2017-11-07T04:24:13.270Z,4.70
2017-11-07T04:24:47.959Z,4.87
2017-11-07T04:25:22.697Z,6.18
2017-11-07T04:25:57.405Z,4.90
2017-11-07T04:26:32.106Z,4.15
2017-11-07T04:27:06.821Z,4.68
2017-11-07T04:27:41.517Z,4.75
2017-11-07T04:28:16.556Z,4.35
2017-11-07T04:28:51.252Z,4.20
2017-11-07T04:29:25.962Z,4.72
2017-11-07T04:30:00.780Z,4.82
2017-11-07T04:30:35.483Z,4.70
2017-11-07T04:31:11.036Z,4.32
2017-11-07T04:31:45.774Z,4.50
2017-11-07T04:32:20.485Z,4.75
2017-11-07T04:32:55.184Z,4.32
2017-11-07T04:33:29.574Z,4.70
2017-11-07T04:34:04.289Z,4.93
2017-11-07T04:34:39.001Z,4.85
2017-11-07T04:35:13.716Z,5.00
2017-11-07T04:35:48.428Z,4.93
2017-11-07T04:36:23.135Z,5.22
2017-11-07T04:36:57.858Z,5.60
2017-11-07T04:37:32.562Z,4.57
2017-11-07T04:38:07.285Z,5.28
2017-11-07T04:38:42.267Z,5.45
2017-11-07T04:39:17.019Z,6.53
2017-11-07T04:39:51.852Z,5.00
2017-11-07T04:40:26.611Z,5.45
2017-11-07T04:41:01.366Z,5.20
2017-11-07T04:41:36.092Z,4.82
2017-11-07T04:42:10.879Z,4.97
2017-11-07T04:42:45.568Z,4.68
2017-11-07T04:43:20.288Z,4.78
2017-11-07T04:43:55.379Z,4.80
2017-11-07T04:44:30.100Z,4.85
2017-11-07T04:45:04.804Z,4.50
2017-11-07T04:45:39.536Z,4.45
2017-11-07T04:46:14.313Z,5.00
2017-11-07T04:46:49.019Z,4.57
2017-11-07T04:47:23.721Z,4.75
2017-11-07T04:47:58.407Z,4.72
2017-11-07T04:48:33.131Z,4.78
2017-11-07T04:49:08.210Z,5.00
2017-11-07T04:49:42.912Z,4.22
2017-11-07T04:50:17.611Z,4.22
2017-11-07T04:50:52.325Z,4.10
2017-11-07T04:51:27.038Z,5.53
2017-11-07T04:52:01.752Z,4.97
2017-11-07T04:52:36.462Z,4.72
2017-11-07T04:53:11.214Z,5.18
2017-11-07T04:53:45.923Z,5.10
2017-11-07T04:54:20.666Z,4.90
2017-11-07T04:54:55.388Z,4.15
2017-11-07T04:55:30.136Z,5.53
2017-11-07T04:56:04.834Z,5.78
2017-11-07T04:56:39.549Z,5.00
2017-11-07T04:57:14.261Z,5.10
2017-11-07T04:57:48.972Z,5.43
2017-11-07T04:58:23.712Z,5.60
2017-11-07T04:58:59.034Z,5.20
2017-11-07T04:59:34.080Z,5.35
2017-11-07T05:00:08.785Z,5.60
2017-11-07T05:00:43.586Z,6.05
2017-11-07T05:01:18.315Z,5.47
2017-11-07T05:01:53.044Z,5.40
2017-11-07T05:02:27.782Z,5.43
2017-11-07T05:03:02.478Z,5.45
2017-11-07T05:03:37.223Z,5.53
2017-11-07T05:04:11.936Z,4.80
2017-11-07T05:04:47.023Z,4.80
2017-11-07T05:05:21.745Z,5.62
2017-11-07T05:05:56.457Z,5.00
2017-11-07T05:06:31.320Z,5.82
2017-11-07T05:07:06.021Z,5.20
2017-11-07T05:07:40.734Z,5.00
2017-11-07T05:08:15.462Z,5.03
2017-11-07T05:08:50.169Z,4.68
2017-11-07T05:09:24.889Z,5.62
2017-11-07T05:09:59.958Z,3.97
2017-11-07T05:10:34.674Z,4.95
2017-11-07T05:11:09.415Z,4.43
2017-11-07T05:11:44.141Z,4.30
2017-11-07T05:12:18.851Z,4.95
2017-11-07T05:12:53.567Z,4.97
2017-11-07T05:13:28.279Z,4.55
2017-11-07T05:14:02.987Z,4.50
2017-11-07T05:14:37.741Z,4.22
2017-11-07T05:15:12.763Z,4.45
2017-11-07T05:15:47.523Z,4.70
2017-11-07T05:16:22.377Z,4.78
2017-11-07T05:16:57.106Z,4.53
2017-11-07T05:17:31.800Z,4.20
2017-11-07T05:18:06.507Z,4.90
2017-11-07T05:18:41.208Z,4.60
2017-11-07T05:19:15.912Z,4.70
2017-11-07T05:19:50.688Z,4.80
2017-11-07T05:20:25.424Z,4.82
2017-11-07T05:21:00.130Z,4.90
2017-11-07T05:21:34.519Z,6.10
2017-11-07T05:22:09.227Z,6.18
2017-11-07T05:22:43.976Z,5.93
2017-11-07T05:23:18.676Z,5.05
2017-11-07T05:23:53.403Z,5.55
2017-11-07T05:24:28.123Z,4.57
2017-11-07T05:25:02.831Z,4.30
2017-11-07T05:25:37.552Z,4.65
2017-11-07T05:26:12.255Z,4.72
2017-11-07T05:26:46.945Z,4.40
2017-11-07T05:27:21.684Z,5.30
2017-11-07T05:27:56.440Z,5.32
2017-11-07T05:28:31.189Z,5.60
2017-11-07T05:29:05.890Z,6.20
2017-11-07T05:29:40.607Z,6.10
2017-11-07T05:30:15.342Z,6.40
2017-11-07T05:30:50.064Z,6.68
2017-11-07T05:31:24.774Z,6.40
2017-11-07T05:31:59.501Z,5.70
2017-11-07T05:32:34.206Z,5.15
2017-11-07T05:33:08.905Z,5.18
2017-11-07T05:33:43.604Z,5.35
2017-11-07T05:34:18.310Z,4.80
2017-11-07T05:34:53.031Z,4.50
2017-11-07T05:35:27.727Z,4.70
2017-11-07T05:36:02.792Z,4.30
2017-11-07T05:36:37.490Z,5.03
2017-11-07T05:37:12.196Z,5.05
2017-11-07T05:37:46.896Z,5.30
2017-11-07T05:38:21.622Z,5.55
2017-11-07T05:38:56.339Z,5.50
2017-11-07T05:39:31.052Z,5.72
2017-11-07T05:40:05.753Z,5.18
2017-11-07T05:40:40.464Z,5.82
2017-11-07T05:41:15.194Z,5.70
2017-11-07T05:41:49.896Z,5.45
2017-11-07T05:42:24.623Z,5.20
2017-11-07T05:42:59.319Z,5.22
2017-11-07T05:43:34.016Z,5.47
2017-11-07T05:44:08.735Z,5.05
2017-11-07T05:44:43.437Z,5.53
2017-11-07T05:45:18.148Z,5.37
2017-11-07T05:45:52.496Z,6.12
2017-11-07T05:46:26.888Z,5.05
2017-11-07T05:47:01.289Z,6.20
2017-11-07T05:47:35.988Z,5.80
2017-11-07T05:48:10.696Z,5.97
2017-11-07T05:48:45.396Z,6.20
2017-11-07T05:49:20.106Z,5.93
2017-11-07T05:49:54.820Z,5.22
2017-11-07T05:50:29.175Z,5.10
2017-11-07T05:51:03.878Z,5.95
2017-11-07T05:51:38.280Z,4.85
2017-11-07T05:52:12.999Z,6.87
2017-11-07T05:52:47.380Z,6.70
2017-11-07T05:53:22.254Z,6.37
2017-11-07T05:53:56.720Z,5.70
2017-11-07T05:54:31.482Z,5.87
2017-11-07T05:55:05.847Z,6.85
2017-11-07T05:55:40.717Z,7.30
2017-11-07T05:56:15.476Z,6.72
2017-11-07T05:56:49.853Z,6.05
2017-11-07T05:57:24.564Z,6.30
2017-11-07T05:57:59.259Z,6.30
2017-11-07T05:58:33.968Z,7.32
2017-11-07T05:59:08.683Z,6.20
2017-11-07T05:59:43.380Z,6.00
2017-11-07T06:00:18.101Z,6.65
2017-11-07T06:00:52.827Z,6.00
2017-11-07T06:01:27.541Z,5.97
2017-11-07T06:02:02.342Z,7.00
2017-11-07T06:02:37.044Z,6.10
2017-11-07T06:03:11.816Z,6.65
2017-11-07T06:03:46.565Z,7.05
2017-11-07T06:04:21.273Z,6.87
2017-11-07T06:04:55.992Z,6.22
2017-11-07T06:05:30.724Z,6.15
2017-11-07T06:06:05.114Z,6.55
2017-11-07T06:06:39.833Z,6.68
2017-11-07T06:07:14.449Z,6.60
2017-11-07T06:07:49.158Z,7.30
2017-11-07T06:08:23.859Z,7.50
2017-11-07T06:08:58.598Z,8.05
2017-11-07T06:09:33.293Z,7.93
2017-11-07T06:10:08.013Z,7.25
2017-11-07T06:10:42.728Z,8.23
2017-11-07T06:11:17.441Z,7.37
2017-11-07T06:11:52.144Z,7.40
2017-11-07T06:12:26.894Z,8.13
2017-11-07T06:13:01.596Z,8.98
2017-11-07T06:13:36.309Z,8.40
2017-11-07T06:14:11.038Z,8.43
2017-11-07T06:14:45.761Z,7.97
2017-11-07T06:15:20.453Z,8.38
2017-11-07T06:15:55.213Z,7.93
2017-11-07T06:16:29.960Z,8.18
2017-11-07T06:17:04.751Z,7.12
2017-11-07T06:17:39.480Z,8.73
2017-11-07T06:18:14.192Z,8.30
2017-11-07T06:18:48.956Z,8.48
2017-11-07T06:19:23.643Z,7.82
2017-11-07T06:19:58.353Z,9.00
2017-11-07T06:20:33.081Z,8.77
2017-11-07T06:21:07.783Z,8.55
2017-11-07T06:21:42.724Z,8.07
2017-11-07T06:22:17.437Z,8.38
2017-11-07T06:22:52.159Z,8.45
2017-11-07T06:23:26.685Z,7.90
2017-11-07T06:24:01.211Z,8.30
2017-11-07T06:24:35.940Z,8.73
2017-11-07T06:25:10.641Z,7.75
2017-11-07T06:25:45.352Z,9.55
2017-11-07T06:26:20.083Z,9.35
2017-11-07T06:26:54.878Z,8.60
2017-11-07T06:27:29.601Z,10.27
2017-11-07T06:28:04.333Z,9.40
2017-11-07T06:28:39.639Z,8.20
2017-11-07T06:29:14.355Z,8.70
2017-11-07T06:29:49.067Z,8.25
2017-11-07T06:30:23.619Z,9.10
2017-11-07T06:30:58.341Z,8.25
2017-11-07T06:31:33.054Z,8.63
2017-11-07T06:32:07.768Z,8.63
2017-11-07T06:32:42.479Z,8.82
2017-11-07T06:33:17.232Z,9.85
2017-11-07T06:33:52.011Z,9.10
2017-11-07T06:34:26.584Z,9.75
2017-11-07T06:35:01.307Z,9.80
2017-11-07T06:35:36.004Z,9.80
2017-11-07T06:36:10.557Z,10.00
2017-11-07T06:36:45.279Z,9.85
2017-11-07T06:37:20.040Z,9.13
2017-11-07T06:37:54.848Z,9.55
2017-11-07T06:38:29.661Z,9.32
2017-11-07T06:39:04.073Z,9.77
2017-11-07T06:39:38.796Z,9.88
2017-11-07T06:40:13.330Z,10.30
2017-11-07T06:40:48.062Z,10.10
2017-11-07T06:41:22.777Z,9.80
2017-11-07T06:41:57.481Z,9.52
2017-11-07T06:42:32.204Z,10.27
2017-11-07T06:43:06.926Z,10.50
2017-11-07T06:43:41.782Z,10.20
2017-11-07T06:44:16.504Z,9.55
2017-11-07T06:44:51.228Z,11.60
2017-11-07T06:45:25.970Z,11.02
2017-11-07T06:46:00.682Z,12.25
2017-11-07T06:46:35.428Z,11.25
2017-11-07T06:47:10.168Z,11.00
2017-11-07T06:47:44.903Z,10.65
2017-11-07T06:48:19.625Z,11.00
2017-11-07T06:48:54.375Z,10.60
2017-11-07T06:49:29.119Z,11.05
2017-11-07T06:50:03.489Z,8.75
2017-11-07T06:50:38.265Z,9.20
2017-11-07T06:51:13.012Z,8.60
2017-11-07T06:51:47.714Z,9.15
2017-11-07T06:52:22.424Z,9.02
2017-11-07T06:52:57.165Z,9.73
2017-11-07T06:53:31.887Z,10.65
2017-11-07T06:54:06.916Z,11.00
2017-11-07T06:54:41.656Z,10.23
2017-11-07T06:55:16.418Z,9.63
2017-11-07T06:55:51.149Z,9.35
2017-11-07T06:56:25.875Z,8.98
2017-11-07T06:57:00.629Z,8.00
2017-11-07T06:57:35.001Z,8.85
2017-11-07T06:58:09.387Z,8.45
2017-11-07T06:58:43.748Z,7.85
2017-11-07T06:59:18.136Z,7.55
2017-11-07T06:59:52.515Z,7.90
2017-11-07T07:00:26.883Z,7.20
2017-11-07T07:01:01.252Z,7.60
2017-11-07T07:01:35.955Z,6.60
2017-11-07T07:02:10.681Z,6.62
2017-11-07T07:02:45.420Z,5.70
2017-11-07T07:03:20.172Z,6.10
2017-11-07T07:03:54.888Z,5.53
2017-11-07T07:04:29.640Z,4.97
2017-11-07T07:05:04.324Z,5.40
2017-11-07T07:05:39.026Z,5.50
2017-11-07T07:06:13.732Z,5.00
2017-11-07T07:06:48.443Z,5.30
2017-11-07T07:07:23.172Z,4.65
2017-11-07T07:07:57.872Z,5.15
2017-11-07T07:08:33.167Z,4.72
2017-11-07T07:09:07.912Z,5.95
2017-11-07T07:09:42.640Z,4.78
2017-11-07T07:10:16.995Z,5.25
2017-11-07T07:10:51.715Z,5.93
2017-11-07T07:11:26.423Z,5.45
2017-11-07T07:12:00.779Z,5.32
2017-11-07T07:12:35.496Z,5.37
2017-11-07T07:13:10.199Z,5.07
2017-11-07T07:13:44.906Z,5.37
2017-11-07T07:14:19.618Z,5.18
2017-11-07T07:14:54.359Z,5.75
2017-11-07T07:15:29.087Z,5.10
2017-11-07T07:16:03.792Z,5.50
2017-11-07T07:16:38.532Z,5.20
2017-11-07T07:17:13.244Z,5.85
2017-11-07T07:17:47.936Z,4.93
2017-11-07T07:18:22.632Z,5.75
2017-11-07T07:18:57.338Z,5.65
2017-11-07T07:19:32.152Z,5.70
2017-11-07T07:20:06.875Z,6.05
2017-11-07T07:20:41.600Z,5.80
2017-11-07T07:21:16.308Z,6.00
2017-11-07T07:21:51.019Z,6.28
2017-11-07T07:22:25.756Z,5.50
2017-11-07T07:23:00.508Z,5.60
2017-11-07T07:23:35.243Z,6.05
2017-11-07T07:24:09.944Z,5.95
2017-11-07T07:24:44.660Z,5.90
2017-11-07T07:25:19.383Z,5.28
2017-11-07T07:25:54.091Z,6.25
2017-11-07T07:26:28.816Z,6.10
2017-11-07T07:27:03.516Z,5.68
2017-11-07T07:27:38.300Z,5.47
2017-11-07T07:28:13.009Z,5.62
2017-11-07T07:28:47.723Z,5.55
2017-11-07T07:29:22.453Z,6.18
2017-11-07T07:29:57.168Z,6.05
2017-11-07T07:30:31.921Z,5.72
2017-11-07T07:31:06.628Z,5.55
2017-11-07T07:31:41.319Z,5.70
2017-11-07T07:32:16.023Z,6.28
2017-11-07T07:32:50.734Z,5.93
2017-11-07T07:33:25.485Z,5.90
2017-11-07T07:34:00.201Z,6.72
2017-11-07T07:34:34.893Z,5.50
2017-11-07T07:35:09.604Z,6.22
2017-11-07T07:35:44.340Z,6.57
2017-11-07T07:36:18.708Z,6.15
2017-11-07T07:36:53.414Z,6.50
2017-11-07T07:37:28.135Z,6.53
2017-11-07T07:38:02.846Z,6.95
2017-11-07T07:38:37.583Z,6.65
2017-11-07T07:39:12.311Z,6.50
2017-11-07T07:39:47.012Z,6.90
2017-11-07T07:40:21.703Z,6.47
2017-11-07T07:40:56.084Z,6.55